Terminal Aerodrome Forecast
Issued by NWS Burlington, VT

Home | Current Version | Previous Version | Text Only | Print | Product List | Glossary On
Versions: 1 2 3 4 5 6 7 8 9 10 11 12 13 14 15 16 17
000
FTUS41 KBTV 271121
TAFBTV
TAF
KBTV 271121Z 2712/2812 19008KT P6SM SCT120
     FM271600 20008KT P6SM VCSH BKN060
      TEMPO 2717/2721 VRB25G35KT 4SM SHRA BR BKN030
     FM280200 18004KT P6SM SCT040=

USA.gov is the U.S. government's official web portal to all federal, state and local government web resources and services.